sensor_id;sensor_type;location;lat;lon;timestamp;P1;durP1;ratioP1;P2;durP2;ratioP2
65717;SDS011;52445;52.466;-1.016;2023-08-06T00:01:17;5.95;;;2.05;;
65717;SDS011;52445;52.466;-1.016;2023-08-06T00:03:47;8.38;;;2.47;;
65717;SDS011;52445;52.466;-1.016;2023-08-06T00:06:14;4.47;;;1.55;;
65717;SDS011;52445;52.466;-1.016;2023-08-06T00:08:41;4.57;;;1.63;;
65717;SDS011;52445;52.466;-1.016;2023-08-06T00:11:07;4.68;;;1.88;;
65717;SDS011;52445;52.466;-1.016;2023-08-06T00:13:34;4.88;;;1.75;;
65717;SDS011;52445;52.466;-1.016;2023-08-06T00:16:17;9.00;;;2.28;;
65717;SDS011;52445;52.466;-1.016;2023-08-06T00:18:43;4.93;;;1.58;;
65717;SDS011;52445;52.466;-1.016;2023-08-06T00:21:10;4.13;;;1.60;;
65717;SDS011;52445;52.466;-1.016;2023-08-06T00:23:39;5.18;;;1.70;;
65717;SDS011;52445;52.466;-1.016;2023-08-06T00:26:08;3.22;;;1.38;;
65717;SDS011;52445;52.466;-1.016;2023-08-06T00:28:36;6.85;;;2.00;;
65717;SDS011;52445;52.466;-1.016;2023-08-06T00:31:03;5.40;;;1.75;;
65717;SDS011;52445;52.466;-1.016;2023-08-06T00:33:31;5.75;;;2.78;;
65717;SDS011;52445;52.466;-1.016;2023-08-06T00:36:00;3.00;;;1.27;;
65717;SDS011;52445;52.466;-1.016;2023-08-06T00:38:27;6.57;;;1.92;;
65717;SDS011;52445;52.466;-1.016;2023-08-06T00:40:55;3.88;;;1.55;;
65717;SDS011;52445;52.466;-1.016;2023-08-06T00:43:23;4.35;;;1.67;;
65717;SDS011;52445;52.466;-1.016;2023-08-06T00:45:51;4.97;;;1.73;;
65717;SDS011;52445;52.466;-1.016;2023-08-06T00:48:19;7.20;;;1.70;;
65717;SDS011;52445;52.466;-1.016;2023-08-06T00:50:48;5.68;;;1.90;;
65717;SDS011;52445;52.466;-1.016;2023-08-06T00:53:17;5.25;;;1.98;;
65717;SDS011;52445;52.466;-1.016;2023-08-06T00:55:46;5.38;;;1.65;;
65717;SDS011;52445;52.466;-1.016;2023-08-06T00:58:15;6.47;;;1.30;;
65717;SDS011;52445;52.466;-1.016;2023-08-06T01:00:45;5.20;;;1.63;;
65717;SDS011;52445;52.466;-1.016;2023-08-06T01:03:13;4.43;;;1.25;;
65717;SDS011;52445;52.466;-1.016;2023-08-06T01:05:40;8.82;;;1.42;;
65717;SDS011;52445;52.466;-1.016;2023-08-06T01:11:01;6.72;;;1.20;;
65717;SDS011;52445;52.466;-1.016;2023-08-06T01:13:50;4.97;;;2.88;;
65717;SDS011;52445;52.466;-1.016;2023-08-06T01:16:25;3.90;;;2.60;;
65717;SDS011;52445;52.466;-1.016;2023-08-06T01:18:52;6.05;;;3.45;;
65717;SDS011;52445;52.466;-1.016;2023-08-06T01:21:19;5.57;;;2.97;;
65717;SDS011;52445;52.466;-1.016;2023-08-06T01:23:46;9.25;;;2.60;;
65717;SDS011;52445;52.466;-1.016;2023-08-06T01:26:35;4.32;;;2.90;;
65717;SDS011;52445;52.466;-1.016;2023-08-06T01:29:14;5.30;;;3.15;;
65717;SDS011;52445;52.466;-1.016;2023-08-06T01:31:44;5.47;;;2.22;;
65717;SDS011;52445;52.466;-1.016;2023-08-06T01:34:17;5.28;;;2.92;;
65717;SDS011;52445;52.466;-1.016;2023-08-06T01:36:47;6.68;;;3.25;;
65717;SDS011;52445;52.466;-1.016;2023-08-06T01:39:14;5.53;;;3.30;;
65717;SDS011;52445;52.466;-1.016;2023-08-06T01:41:40;7.25;;;3.30;;
65717;SDS011;52445;52.466;-1.016;2023-08-06T01:44:07;4.60;;;3.17;;
65717;SDS011;52445;52.466;-1.016;2023-08-06T01:46:34;8.60;;;3.90;;
65717;SDS011;52445;52.466;-1.016;2023-08-06T01:49:00;7.22;;;3.47;;
65717;SDS011;52445;52.466;-1.016;2023-08-06T01:51:27;7.10;;;4.07;;
65717;SDS011;52445;52.466;-1.016;2023-08-06T01:53:54;5.85;;;3.10;;
65717;SDS011;52445;52.466;-1.016;2023-08-06T01:56:20;6.32;;;3.75;;
65717;SDS011;52445;52.466;-1.016;2023-08-06T01:58:47;5.72;;;3.42;;
65717;SDS011;52445;52.466;-1.016;2023-08-06T02:01:14;6.13;;;2.88;;
65717;SDS011;52445;52.466;-1.016;2023-08-06T02:03:40;7.38;;;1.77;;
65717;SDS011;52445;52.466;-1.016;2023-08-06T02:06:07;6.78;;;2.83;;
65717;SDS011;52445;52.466;-1.016;2023-08-06T02:08:34;8.73;;;3.30;;
65717;SDS011;52445;52.466;-1.016;2023-08-06T02:11:00;5.47;;;3.92;;
65717;SDS011;52445;52.466;-1.016;2023-08-06T02:13:29;7.05;;;3.17;;
65717;SDS011;52445;52.466;-1.016;2023-08-06T02:15:55;8.25;;;3.42;;
65717;SDS011;52445;52.466;-1.016;2023-08-06T02:18:22;7.68;;;2.95;;
65717;SDS011;52445;52.466;-1.016;2023-08-06T02:20:57;6.95;;;3.30;;
65717;SDS011;52445;52.466;-1.016;2023-08-06T02:23:24;7.80;;;1.63;;
65717;SDS011;52445;52.466;-1.016;2023-08-06T02:26:07;6.97;;;2.45;;
65717;SDS011;52445;52.466;-1.016;2023-08-06T02:28:34;5.13;;;2.60;;
65717;SDS011;52445;52.466;-1.016;2023-08-06T02:31:01;4.90;;;2.53;;
65717;SDS011;52445;52.466;-1.016;2023-08-06T02:33:27;5.57;;;2.78;;
65717;SDS011;52445;52.466;-1.016;2023-08-06T02:36:00;4.43;;;1.63;;
65717;SDS011;52445;52.466;-1.016;2023-08-06T02:38:27;3.70;;;2.47;;
65717;SDS011;52445;52.466;-1.016;2023-08-06T02:40:54;9.27;;;3.05;;
65717;SDS011;52445;52.466;-1.016;2023-08-06T02:43:20;4.40;;;2.40;;
65717;SDS011;52445;52.466;-1.016;2023-08-06T02:45:47;5.00;;;2.58;;
65717;SDS011;52445;52.466;-1.016;2023-08-06T02:48:14;3.97;;;2.75;;
65717;SDS011;52445;52.466;-1.016;2023-08-06T02:50:41;8.82;;;3.53;;
65717;SDS011;52445;52.466;-1.016;2023-08-06T02:53:08;5.10;;;2.63;;
65717;SDS011;52445;52.466;-1.016;2023-08-06T02:55:35;7.38;;;2.80;;
65717;SDS011;52445;52.466;-1.016;2023-08-06T02:58:01;4.65;;;2.78;;
65717;SDS011;52445;52.466;-1.016;2023-08-06T03:00:28;6.28;;;2.90;;
65717;SDS011;52445;52.466;-1.016;2023-08-06T03:02:55;4.75;;;2.63;;
65717;SDS011;52445;52.466;-1.016;2023-08-06T03:05:22;4.32;;;2.15;;
65717;SDS011;52445;52.466;-1.016;2023-08-06T03:07:48;9.25;;;2.78;;
65717;SDS011;52445;52.466;-1.016;2023-08-06T03:10:15;7.00;;;3.83;;
65717;SDS011;52445;52.466;-1.016;2023-08-06T03:12:42;4.28;;;2.22;;
65717;SDS011;52445;52.466;-1.016;2023-08-06T03:15:08;8.30;;;1.70;;
65717;SDS011;52445;52.466;-1.016;2023-08-06T03:17:35;7.85;;;2.97;;
65717;SDS011;52445;52.466;-1.016;2023-08-06T03:20:02;6.65;;;3.42;;
65717;SDS011;52445;52.466;-1.016;2023-08-06T03:22:29;7.25;;;2.50;;
65717;SDS011;52445;52.466;-1.016;2023-08-06T03:24:56;7.03;;;3.33;;
65717;SDS011;52445;52.466;-1.016;2023-08-06T03:27:22;6.88;;;3.60;;
65717;SDS011;52445;52.466;-1.016;2023-08-06T03:29:49;6.03;;;3.35;;
65717;SDS011;52445;52.466;-1.016;2023-08-06T03:32:16;7.25;;;3.13;;
65717;SDS011;52445;52.466;-1.016;2023-08-06T03:34:43;8.18;;;3.58;;
65717;SDS011;52445;52.466;-1.016;2023-08-06T03:37:10;7.63;;;3.20;;
65717;SDS011;52445;52.466;-1.016;2023-08-06T03:39:36;7.88;;;3.28;;
65717;SDS011;52445;52.466;-1.016;2023-08-06T03:42:03;9.85;;;3.78;;
65717;SDS011;52445;52.466;-1.016;2023-08-06T03:44:30;4.57;;;3.38;;
65717;SDS011;52445;52.466;-1.016;2023-08-06T03:46:57;6.40;;;1.95;;
65717;SDS011;52445;52.466;-1.016;2023-08-06T03:49:24;7.10;;;3.83;;
65717;SDS011;52445;52.466;-1.016;2023-08-06T03:51:50;7.90;;;4.60;;
65717;SDS011;52445;52.466;-1.016;2023-08-06T03:54:17;5.63;;;3.65;;
65717;SDS011;52445;52.466;-1.016;2023-08-06T03:56:44;5.30;;;2.90;;
65717;SDS011;52445;52.466;-1.016;2023-08-06T03:59:11;8.93;;;4.18;;
65717;SDS011;52445;52.466;-1.016;2023-08-06T04:01:37;8.05;;;2.97;;
65717;SDS011;52445;52.466;-1.016;2023-08-06T04:04:04;6.13;;;3.67;;
65717;SDS011;52445;52.466;-1.016;2023-08-06T04:06:31;8.90;;;3.35;;
65717;SDS011;52445;52.466;-1.016;2023-08-06T04:08:57;5.57;;;3.40;;
65717;SDS011;52445;52.466;-1.016;2023-08-06T04:11:24;7.63;;;3.22;;
65717;SDS011;52445;52.466;-1.016;2023-08-06T04:13:50;7.18;;;3.72;;
65717;SDS011;52445;52.466;-1.016;2023-08-06T04:16:21;7.00;;;3.50;;
65717;SDS011;52445;52.466;-1.016;2023-08-06T04:18:48;7.13;;;3.22;;
65717;SDS011;52445;52.466;-1.016;2023-08-06T04:21:15;5.90;;;3.75;;
65717;SDS011;52445;52.466;-1.016;2023-08-06T04:23:41;7.55;;;3.10;;
65717;SDS011;52445;52.466;-1.016;2023-08-06T04:26:08;6.38;;;3.97;;
65717;SDS011;52445;52.466;-1.016;2023-08-06T04:28:34;8.25;;;3.80;;
65717;SDS011;52445;52.466;-1.016;2023-08-06T04:31:01;6.55;;;3.67;;
65717;SDS011;52445;52.466;-1.016;2023-08-06T04:33:28;7.28;;;3.38;;
65717;SDS011;52445;52.466;-1.016;2023-08-06T04:35:55;6.78;;;3.72;;
65717;SDS011;52445;52.466;-1.016;2023-08-06T04:38:23;7.07;;;3.67;;
65717;SDS011;52445;52.466;-1.016;2023-08-06T04:40:51;8.63;;;3.72;;
65717;SDS011;52445;52.466;-1.016;2023-08-06T04:43:18;8.82;;;3.97;;
65717;SDS011;52445;52.466;-1.016;2023-08-06T04:45:46;8.05;;;3.08;;
65717;SDS011;52445;52.466;-1.016;2023-08-06T04:48:13;5.40;;;2.92;;
65717;SDS011;52445;52.466;-1.016;2023-08-06T04:50:44;7.82;;;3.13;;
65717;SDS011;52445;52.466;-1.016;2023-08-06T04:53:11;7.50;;;3.70;;
65717;SDS011;52445;52.466;-1.016;2023-08-06T04:55:38;6.70;;;2.15;;
65717;SDS011;52445;52.466;-1.016;2023-08-06T04:58:05;8.13;;;3.05;;
65717;SDS011;52445;52.466;-1.016;2023-08-06T05:00:33;10.77;;;4.05;;
65717;SDS011;52445;52.466;-1.016;2023-08-06T05:03:00;9.50;;;3.42;;
65717;SDS011;52445;52.466;-1.016;2023-08-06T05:05:27;8.52;;;4.00;;
65717;SDS011;52445;52.466;-1.016;2023-08-06T05:07:55;8.15;;;3.83;;
65717;SDS011;52445;52.466;-1.016;2023-08-06T05:10:25;11.55;;;4.18;;
65717;SDS011;52445;52.466;-1.016;2023-08-06T05:12:52;7.05;;;3.22;;
65717;SDS011;52445;52.466;-1.016;2023-08-06T05:15:19;5.50;;;3.33;;
65717;SDS011;52445;52.466;-1.016;2023-08-06T05:17:46;7.85;;;2.65;;
65717;SDS011;52445;52.466;-1.016;2023-08-06T05:20:13;6.72;;;3.63;;
65717;SDS011;52445;52.466;-1.016;2023-08-06T05:22:44;8.05;;;3.83;;
65717;SDS011;52445;52.466;-1.016;2023-08-06T05:25:13;5.18;;;3.42;;
65717;SDS011;52445;52.466;-1.016;2023-08-06T05:27:40;6.35;;;3.72;;
65717;SDS011;52445;52.466;-1.016;2023-08-06T05:30:07;10.05;;;3.78;;
65717;SDS011;52445;52.466;-1.016;2023-08-06T05:32:34;9.25;;;3.80;;
65717;SDS011;52445;52.466;-1.016;2023-08-06T05:35:01;7.00;;;4.15;;
65717;SDS011;52445;52.466;-1.016;2023-08-06T05:37:28;7.53;;;4.13;;
65717;SDS011;52445;52.466;-1.016;2023-08-06T05:39:54;6.43;;;4.00;;
65717;SDS011;52445;52.466;-1.016;2023-08-06T05:42:21;9.18;;;2.95;;
65717;SDS011;52445;52.466;-1.016;2023-08-06T05:44:47;6.45;;;3.90;;
65717;SDS011;52445;52.466;-1.016;2023-08-06T05:47:14;7.65;;;4.57;;
65717;SDS011;52445;52.466;-1.016;2023-08-06T05:49:41;7.40;;;3.97;;
65717;SDS011;52445;52.466;-1.016;2023-08-06T05:52:07;8.00;;;3.97;;
65717;SDS011;52445;52.466;-1.016;2023-08-06T05:54:34;6.78;;;4.28;;
65717;SDS011;52445;52.466;-1.016;2023-08-06T05:57:01;8.18;;;4.28;;
65717;SDS011;52445;52.466;-1.016;2023-08-06T05:59:28;8.00;;;2.22;;
65717;SDS011;52445;52.466;-1.016;2023-08-06T06:01:54;8.90;;;3.85;;
65717;SDS011;52445;52.466;-1.016;2023-08-06T06:04:21;7.72;;;4.25;;
65717;SDS011;52445;52.466;-1.016;2023-08-06T06:06:48;6.38;;;3.50;;
65717;SDS011;52445;52.466;-1.016;2023-08-06T06:09:15;11.55;;;4.35;;
65717;SDS011;52445;52.466;-1.016;2023-08-06T06:11:41;7.13;;;3.90;;
65717;SDS011;52445;52.466;-1.016;2023-08-06T06:14:08;6.90;;;2.15;;
65717;SDS011;52445;52.466;-1.016;2023-08-06T06:16:34;7.40;;;3.35;;
65717;SDS011;52445;52.466;-1.016;2023-08-06T06:19:01;7.88;;;3.78;;
65717;SDS011;52445;52.466;-1.016;2023-08-06T06:21:28;7.32;;;3.25;;
65717;SDS011;52445;52.466;-1.016;2023-08-06T06:23:54;7.28;;;3.47;;
65717;SDS011;52445;52.466;-1.016;2023-08-06T06:26:22;6.43;;;3.72;;
65717;SDS011;52445;52.466;-1.016;2023-08-06T06:28:49;6.90;;;3.92;;
65717;SDS011;52445;52.466;-1.016;2023-08-06T06:31:16;10.93;;;2.72;;
65717;SDS011;52445;52.466;-1.016;2023-08-06T06:33:42;7.20;;;4.03;;
65717;SDS011;52445;52.466;-1.016;2023-08-06T06:36:09;10.50;;;5.43;;
65717;SDS011;52445;52.466;-1.016;2023-08-06T06:38:36;8.07;;;4.07;;
65717;SDS011;52445;52.466;-1.016;2023-08-06T06:41:03;10.73;;;4.25;;
65717;SDS011;52445;52.466;-1.016;2023-08-06T06:43:29;8.07;;;4.63;;
65717;SDS011;52445;52.466;-1.016;2023-08-06T06:45:56;9.18;;;3.72;;
65717;SDS011;52445;52.466;-1.016;2023-08-06T06:48:26;9.15;;;4.28;;
65717;SDS011;52445;52.466;-1.016;2023-08-06T06:50:54;6.05;;;3.88;;
65717;SDS011;52445;52.466;-1.016;2023-08-06T06:53:20;5.30;;;3.10;;
65717;SDS011;52445;52.466;-1.016;2023-08-06T06:55:53;9.48;;;4.63;;
65717;SDS011;52445;52.466;-1.016;2023-08-06T06:58:20;8.02;;;4.47;;
65717;SDS011;52445;52.466;-1.016;2023-08-06T07:00:47;9.45;;;4.38;;
65717;SDS011;52445;52.466;-1.016;2023-08-06T07:03:15;9.57;;;4.85;;
65717;SDS011;52445;52.466;-1.016;2023-08-06T07:05:42;8.90;;;3.97;;
65717;SDS011;52445;52.466;-1.016;2023-08-06T07:08:10;6.80;;;3.72;;
65717;SDS011;52445;52.466;-1.016;2023-08-06T07:10:37;8.07;;;4.75;;
65717;SDS011;52445;52.466;-1.016;2023-08-06T07:13:07;7.60;;;4.70;;
65717;SDS011;52445;52.466;-1.016;2023-08-06T07:15:34;6.45;;;3.95;;
65717;SDS011;52445;52.466;-1.016;2023-08-06T07:18:01;6.90;;;4.28;;
65717;SDS011;52445;52.466;-1.016;2023-08-06T07:20:27;6.18;;;3.75;;
65717;SDS011;52445;52.466;-1.016;2023-08-06T07:22:58;5.85;;;3.42;;
65717;SDS011;52445;52.466;-1.016;2023-08-06T07:25:25;6.13;;;4.68;;
65717;SDS011;52445;52.466;-1.016;2023-08-06T07:27:52;5.70;;;3.72;;
65717;SDS011;52445;52.466;-1.016;2023-08-06T07:30:18;10.77;;;4.20;;
65717;SDS011;52445;52.466;-1.016;2023-08-06T07:32:45;8.70;;;4.32;;
65717;SDS011;52445;52.466;-1.016;2023-08-06T07:35:12;7.68;;;3.88;;
65717;SDS011;52445;52.466;-1.016;2023-08-06T07:37:40;6.75;;;3.97;;
65717;SDS011;52445;52.466;-1.016;2023-08-06T07:40:07;5.32;;;3.53;;
65717;SDS011;52445;52.466;-1.016;2023-08-06T07:42:35;5.10;;;1.80;;
65717;SDS011;52445;52.466;-1.016;2023-08-06T07:45:02;5.47;;;3.75;;
65717;SDS011;52445;52.466;-1.016;2023-08-06T07:47:29;5.07;;;3.53;;
65717;SDS011;52445;52.466;-1.016;2023-08-06T07:49:55;4.80;;;3.38;;
65717;SDS011;52445;52.466;-1.016;2023-08-06T07:52:22;6.47;;;4.15;;
65717;SDS011;52445;52.466;-1.016;2023-08-06T07:54:49;5.60;;;3.70;;
65717;SDS011;52445;52.466;-1.016;2023-08-06T07:57:15;4.72;;;3.40;;
65717;SDS011;52445;52.466;-1.016;2023-08-06T07:59:43;8.07;;;3.75;;
65717;SDS011;52445;52.466;-1.016;2023-08-06T08:02:09;6.53;;;3.33;;
65717;SDS011;52445;52.466;-1.016;2023-08-06T08:04:36;5.05;;;3.45;;
65717;SDS011;52445;52.466;-1.016;2023-08-06T08:07:03;8.88;;;4.03;;
65717;SDS011;52445;52.466;-1.016;2023-08-06T08:09:29;5.80;;;3.50;;
65717;SDS011;52445;52.466;-1.016;2023-08-06T08:11:56;4.57;;;3.33;;
65717;SDS011;52445;52.466;-1.016;2023-08-06T08:14:26;6.70;;;3.92;;
65717;SDS011;52445;52.466;-1.016;2023-08-06T08:16:53;7.10;;;4.13;;
65717;SDS011;52445;52.466;-1.016;2023-08-06T08:19:19;4.30;;;2.85;;
65717;SDS011;52445;52.466;-1.016;2023-08-06T08:21:47;5.07;;;3.78;;
65717;SDS011;52445;52.466;-1.016;2023-08-06T08:24:14;9.07;;;3.60;;
65717;SDS011;52445;52.466;-1.016;2023-08-06T08:26:40;5.25;;;3.50;;
65717;SDS011;52445;52.466;-1.016;2023-08-06T08:29:07;3.92;;;3.20;;
65717;SDS011;52445;52.466;-1.016;2023-08-06T08:31:33;5.45;;;3.65;;
65717;SDS011;52445;52.466;-1.016;2023-08-06T08:34:05;6.05;;;3.53;;
65717;SDS011;52445;52.466;-1.016;2023-08-06T08:36:32;5.80;;;3.70;;
65717;SDS011;52445;52.466;-1.016;2023-08-06T08:38:59;6.88;;;4.18;;
65717;SDS011;52445;52.466;-1.016;2023-08-06T08:41:28;10.63;;;3.42;;
65717;SDS011;52445;52.466;-1.016;2023-08-06T08:43:55;5.57;;;3.72;;
65717;SDS011;52445;52.466;-1.016;2023-08-06T08:46:25;4.13;;;3.08;;
65717;SDS011;52445;52.466;-1.016;2023-08-06T08:48:54;5.20;;;3.42;;
65717;SDS011;52445;52.466;-1.016;2023-08-06T08:51:22;6.90;;;3.25;;
65717;SDS011;52445;52.466;-1.016;2023-08-06T08:53:49;9.38;;;3.60;;
65717;SDS011;52445;52.466;-1.016;2023-08-06T08:56:21;5.18;;;3.10;;
65717;SDS011;52445;52.466;-1.016;2023-08-06T08:58:48;5.55;;;3.85;;
65717;SDS011;52445;52.466;-1.016;2023-08-06T09:01:15;5.30;;;3.25;;
65717;SDS011;52445;52.466;-1.016;2023-08-06T09:03:43;5.00;;;3.00;;
65717;SDS011;52445;52.466;-1.016;2023-08-06T09:06:11;3.33;;;2.75;;
65717;SDS011;52445;52.466;-1.016;2023-08-06T09:08:39;5.25;;;3.58;;
65717;SDS011;52445;52.466;-1.016;2023-08-06T09:11:09;3.88;;;3.15;;
65717;SDS011;52445;52.466;-1.016;2023-08-06T09:13:37;5.88;;;2.65;;
65717;SDS011;52445;52.466;-1.016;2023-08-06T09:16:04;3.72;;;2.72;;
65717;SDS011;52445;52.466;-1.016;2023-08-06T09:18:31;6.10;;;2.28;;
65717;SDS011;52445;52.466;-1.016;2023-08-06T09:20:58;3.88;;;2.72;;
65717;SDS011;52445;52.466;-1.016;2023-08-06T09:23:28;6.32;;;3.47;;
65717;SDS011;52445;52.466;-1.016;2023-08-06T09:25:57;3.92;;;3.33;;
65717;SDS011;52445;52.466;-1.016;2023-08-06T09:28:24;4.30;;;3.90;;
65717;SDS011;52445;52.466;-1.016;2023-08-06T09:30:52;4.60;;;2.90;;
65717;SDS011;52445;52.466;-1.016;2023-08-06T09:33:22;4.60;;;3.85;;
65717;SDS011;52445;52.466;-1.016;2023-08-06T09:35:49;3.90;;;3.17;;
65717;SDS011;52445;52.466;-1.016;2023-08-06T09:38:16;3.03;;;2.38;;
65717;SDS011;52445;52.466;-1.016;2023-08-06T09:40:43;3.30;;;2.53;;
65717;SDS011;52445;52.466;-1.016;2023-08-06T09:43:09;2.92;;;2.42;;
65717;SDS011;52445;52.466;-1.016;2023-08-06T09:45:38;4.20;;;3.20;;
65717;SDS011;52445;52.466;-1.016;2023-08-06T09:48:05;3.00;;;1.98;;
65717;SDS011;52445;52.466;-1.016;2023-08-06T09:50:35;2.47;;;2.28;;
65717;SDS011;52445;52.466;-1.016;2023-08-06T09:53:05;6.18;;;2.70;;
65717;SDS011;52445;52.466;-1.016;2023-08-06T09:55:33;2.33;;;2.13;;
65717;SDS011;52445;52.466;-1.016;2023-08-06T09:58:00;3.15;;;2.75;;
65717;SDS011;52445;52.466;-1.016;2023-08-06T10:00:27;3.33;;;2.53;;
65717;SDS011;52445;52.466;-1.016;2023-08-06T10:02:55;2.25;;;1.85;;
65717;SDS011;52445;52.466;-1.016;2023-08-06T10:05:26;3.13;;;2.83;;
65717;SDS011;52445;52.466;-1.016;2023-08-06T10:07:53;4.05;;;1.98;;
65717;SDS011;52445;52.466;-1.016;2023-08-06T10:10:22;3.38;;;2.65;;
65717;SDS011;52445;52.466;-1.016;2023-08-06T10:12:50;2.80;;;2.13;;
65717;SDS011;52445;52.466;-1.016;2023-08-06T10:15:22;3.92;;;2.22;;
65717;SDS011;52445;52.466;-1.016;2023-08-06T10:17:53;2.85;;;2.42;;
65717;SDS011;52445;52.466;-1.016;2023-08-06T10:20:23;1.88;;;1.00;;
65717;SDS011;52445;52.466;-1.016;2023-08-06T10:22:59;2.67;;;2.35;;
65717;SDS011;52445;52.466;-1.016;2023-08-06T10:25:30;2.65;;;2.22;;
65717;SDS011;52445;52.466;-1.016;2023-08-06T10:27:58;2.70;;;2.25;;
65717;SDS011;52445;52.466;-1.016;2023-08-06T10:30:32;3.50;;;2.55;;
65717;SDS011;52445;52.466;-1.016;2023-08-06T10:33:00;2.75;;;1.30;;
65717;SDS011;52445;52.466;-1.016;2023-08-06T10:35:45;2.58;;;2.38;;
65717;SDS011;52445;52.466;-1.016;2023-08-06T10:38:17;3.00;;;2.60;;
65717;SDS011;52445;52.466;-1.016;2023-08-06T10:40:49;2.88;;;2.53;;
65717;SDS011;52445;52.466;-1.016;2023-08-06T10:46:09;4.65;;;1.60;;
65717;SDS011;52445;52.466;-1.016;2023-08-06T10:51:13;3.28;;;1.52;;
65717;SDS011;52445;52.466;-1.016;2023-08-06T10:53:42;4.85;;;1.85;;
65717;SDS011;52445;52.466;-1.016;2023-08-06T10:56:12;3.53;;;1.65;;
65717;SDS011;52445;52.466;-1.016;2023-08-06T10:58:44;2.40;;;1.33;;
65717;SDS011;52445;52.466;-1.016;2023-08-06T11:01:11;4.13;;;1.80;;
65717;SDS011;52445;52.466;-1.016;2023-08-06T11:03:38;2.75;;;1.92;;
65717;SDS011;52445;52.466;-1.016;2023-08-06T11:06:07;3.47;;;2.03;;
65717;SDS011;52445;52.466;-1.016;2023-08-06T11:08:35;2.67;;;1.60;;
65717;SDS011;52445;52.466;-1.016;2023-08-06T11:11:11;3.35;;;1.88;;
65717;SDS011;52445;52.466;-1.016;2023-08-06T11:13:40;3.85;;;1.52;;
65717;SDS011;52445;52.466;-1.016;2023-08-06T11:16:07;3.22;;;1.73;;
65717;SDS011;52445;52.466;-1.016;2023-08-06T11:18:35;2.50;;;1.85;;
65717;SDS011;52445;52.466;-1.016;2023-08-06T11:21:02;3.20;;;2.25;;
65717;SDS011;52445;52.466;-1.016;2023-08-06T11:23:29;3.70;;;1.50;;
65717;SDS011;52445;52.466;-1.016;2023-08-06T11:25:56;3.83;;;1.38;;
65717;SDS011;52445;52.466;-1.016;2023-08-06T11:28:24;2.70;;;1.85;;
65717;SDS011;52445;52.466;-1.016;2023-08-06T11:30:51;2.08;;;1.23;;
65717;SDS011;52445;52.466;-1.016;2023-08-06T11:33:20;3.88;;;1.70;;
65717;SDS011;52445;52.466;-1.016;2023-08-06T11:35:49;2.67;;;1.73;;
65717;SDS011;52445;52.466;-1.016;2023-08-06T11:38:16;2.88;;;1.65;;
65717;SDS011;52445;52.466;-1.016;2023-08-06T11:40:44;5.22;;;1.65;;
65717;SDS011;52445;52.466;-1.016;2023-08-06T11:43:12;2.38;;;1.42;;
65717;SDS011;52445;52.466;-1.016;2023-08-06T11:45:39;2.90;;;1.52;;
65717;SDS011;52445;52.466;-1.016;2023-08-06T11:48:06;2.25;;;1.30;;
65717;SDS011;52445;52.466;-1.016;2023-08-06T11:50:36;2.47;;;1.73;;
65717;SDS011;52445;52.466;-1.016;2023-08-06T11:53:05;3.22;;;1.55;;
65717;SDS011;52445;52.466;-1.016;2023-08-06T11:55:31;3.60;;;1.90;;
65717;SDS011;52445;52.466;-1.016;2023-08-06T11:58:02;4.13;;;1.70;;
65717;SDS011;52445;52.466;-1.016;2023-08-06T12:00:30;3.30;;;1.42;;
65717;SDS011;52445;52.466;-1.016;2023-08-06T12:02:57;3.63;;;1.33;;
65717;SDS011;52445;52.466;-1.016;2023-08-06T12:05:28;2.70;;;1.75;;
65717;SDS011;52445;52.466;-1.016;2023-08-06T12:07:56;3.70;;;2.05;;
65717;SDS011;52445;52.466;-1.016;2023-08-06T12:10:25;6.88;;;2.15;;
65717;SDS011;52445;52.466;-1.016;2023-08-06T12:12:53;3.83;;;1.95;;
65717;SDS011;52445;52.466;-1.016;2023-08-06T12:15:20;7.40;;;1.33;;
65717;SDS011;52445;52.466;-1.016;2023-08-06T12:17:47;2.30;;;1.73;;
65717;SDS011;52445;52.466;-1.016;2023-08-06T12:20:14;2.67;;;1.10;;
65717;SDS011;52445;52.466;-1.016;2023-08-06T12:22:41;1.85;;;0.80;;
65717;SDS011;52445;52.466;-1.016;2023-08-06T12:25:08;1.80;;;1.30;;
65717;SDS011;52445;52.466;-1.016;2023-08-06T12:27:38;5.82;;;1.33;;
65717;SDS011;52445;52.466;-1.016;2023-08-06T12:30:07;2.90;;;0.70;;
65717;SDS011;52445;52.466;-1.016;2023-08-06T12:32:35;2.28;;;0.82;;
65717;SDS011;52445;52.466;-1.016;2023-08-06T12:35:02;1.33;;;0.95;;
65717;SDS011;52445;52.466;-1.016;2023-08-06T12:37:29;2.20;;;1.10;;
65717;SDS011;52445;52.466;-1.016;2023-08-06T12:39:56;1.40;;;0.93;;
65717;SDS011;52445;52.466;-1.016;2023-08-06T12:42:22;2.10;;;0.57;;
65717;SDS011;52445;52.466;-1.016;2023-08-06T12:44:50;1.55;;;1.02;;
65717;SDS011;52445;52.466;-1.016;2023-08-06T12:47:17;1.30;;;0.60;;
65717;SDS011;52445;52.466;-1.016;2023-08-06T12:49:44;1.55;;;1.08;;
65717;SDS011;52445;52.466;-1.016;2023-08-06T12:52:11;1.38;;;0.60;;
65717;SDS011;52445;52.466;-1.016;2023-08-06T12:57:08;2.28;;;0.98;;
65717;SDS011;52445;52.466;-1.016;2023-08-06T12:59:35;1.77;;;1.38;;
65717;SDS011;52445;52.466;-1.016;2023-08-06T13:02:03;3.53;;;1.52;;
65717;SDS011;52445;52.466;-1.016;2023-08-06T13:04:30;1.30;;;0.60;;
65717;SDS011;52445;52.466;-1.016;2023-08-06T13:06:58;1.83;;;0.85;;
65717;SDS011;52445;52.466;-1.016;2023-08-06T13:09:24;1.75;;;0.90;;
65717;SDS011;52445;52.466;-1.016;2023-08-06T13:11:54;2.20;;;0.75;;
65717;SDS011;52445;52.466;-1.016;2023-08-06T13:14:21;1.65;;;1.15;;
65717;SDS011;52445;52.466;-1.016;2023-08-06T13:16:48;2.17;;;1.05;;
65717;SDS011;52445;52.466;-1.016;2023-08-06T13:19:14;3.08;;;1.23;;
65717;SDS011;52445;52.466;-1.016;2023-08-06T13:24:19;3.10;;;0.98;;
65717;SDS011;52445;52.466;-1.016;2023-08-06T13:26:46;1.80;;;0.75;;
65717;SDS011;52445;52.466;-1.016;2023-08-06T13:29:13;1.67;;;0.90;;
65717;SDS011;52445;52.466;-1.016;2023-08-06T13:31:40;2.38;;;1.15;;
65717;SDS011;52445;52.466;-1.016;2023-08-06T13:34:06;1.10;;;0.88;;
65717;SDS011;52445;52.466;-1.016;2023-08-06T13:36:33;1.90;;;1.08;;
65717;SDS011;52445;52.466;-1.016;2023-08-06T13:39:00;1.30;;;0.43;;
65717;SDS011;52445;52.466;-1.016;2023-08-06T13:41:26;1.67;;;0.75;;
65717;SDS011;52445;52.466;-1.016;2023-08-06T13:43:54;2.47;;;1.65;;
65717;SDS011;52445;52.466;-1.016;2023-08-06T13:46:20;1.60;;;0.63;;
65717;SDS011;52445;52.466;-1.016;2023-08-06T13:48:47;2.15;;;0.80;;
65717;SDS011;52445;52.466;-1.016;2023-08-06T13:51:17;2.65;;;0.82;;
65717;SDS011;52445;52.466;-1.016;2023-08-06T13:53:44;1.15;;;0.60;;
65717;SDS011;52445;52.466;-1.016;2023-08-06T13:56:11;2.08;;;1.00;;
65717;SDS011;52445;52.466;-1.016;2023-08-06T13:58:38;1.45;;;0.52;;
65717;SDS011;52445;52.466;-1.016;2023-08-06T14:01:06;1.55;;;0.65;;
65717;SDS011;52445;52.466;-1.016;2023-08-06T14:03:33;1.67;;;0.65;;
65717;SDS011;52445;52.466;-1.016;2023-08-06T14:06:00;1.10;;;0.57;;
65717;SDS011;52445;52.466;-1.016;2023-08-06T14:08:27;2.42;;;0.88;;
65717;SDS011;52445;52.466;-1.016;2023-08-06T14:10:54;2.42;;;1.30;;
65717;SDS011;52445;52.466;-1.016;2023-08-06T14:13:21;2.17;;;0.80;;
65717;SDS011;52445;52.466;-1.016;2023-08-06T14:15:48;3.83;;;0.95;;
65717;SDS011;52445;52.466;-1.016;2023-08-06T14:18:15;1.50;;;1.10;;
65717;SDS011;52445;52.466;-1.016;2023-08-06T14:20:43;1.73;;;0.73;;
65717;SDS011;52445;52.466;-1.016;2023-08-06T14:23:10;1.63;;;0.85;;
65717;SDS011;52445;52.466;-1.016;2023-08-06T14:25:37;2.67;;;1.90;;
65717;SDS011;52445;52.466;-1.016;2023-08-06T14:28:04;1.27;;;0.77;;
65717;SDS011;52445;52.466;-1.016;2023-08-06T14:30:33;1.45;;;0.68;;
65717;SDS011;52445;52.466;-1.016;2023-08-06T14:33:01;1.00;;;0.57;;
65717;SDS011;52445;52.466;-1.016;2023-08-06T14:35:49;0.90;;;0.30;;
65717;SDS011;52445;52.466;-1.016;2023-08-06T14:38:16;0.82;;;0.52;;
65717;SDS011;52445;52.466;-1.016;2023-08-06T14:40:43;1.38;;;0.90;;
65717;SDS011;52445;52.466;-1.016;2023-08-06T14:43:10;3.47;;;1.10;;
65717;SDS011;52445;52.466;-1.016;2023-08-06T14:45:40;1.33;;;0.52;;
65717;SDS011;52445;52.466;-1.016;2023-08-06T14:48:07;1.20;;;0.40;;
65717;SDS011;52445;52.466;-1.016;2023-08-06T14:50:34;1.20;;;0.70;;